sensor_id;sensor_type;location;lat;lon;timestamp;temperature;humidity
10472;DHT22;5283;48.876;8.962;2023-12-22T00:01:24;6.90;99.90
10472;DHT22;5283;48.876;8.962;2023-12-22T00:03:51;7.10;99.90
10472;DHT22;5283;48.876;8.962;2023-12-22T00:06:17;7.20;99.90
10472;DHT22;5283;48.876;8.962;2023-12-22T00:08:44;7.30;99.90
10472;DHT22;5283;48.876;8.962;2023-12-22T00:11:11;7.30;99.90
10472;DHT22;5283;48.876;8.962;2023-12-22T00:13:38;7.40;99.90
10472;DHT22;5283;48.876;8.962;2023-12-22T00:16:05;7.60;99.90
10472;DHT22;5283;48.876;8.962;2023-12-22T00:18:31;7.60;99.90
10472;DHT22;5283;48.876;8.962;2023-12-22T00:20:58;7.60;99.90
10472;DHT22;5283;48.876;8.962;2023-12-22T00:23:25;7.70;99.90
10472;DHT22;5283;48.876;8.962;2023-12-22T00:25:51;7.60;99.90
10472;DHT22;5283;48.876;8.962;2023-12-22T00:28:18;7.10;99.90
10472;DHT22;5283;48.876;8.962;2023-12-22T00:30:45;7.00;99.90
10472;DHT22;5283;48.876;8.962;2023-12-22T00:33:11;7.00;99.90
10472;DHT22;5283;48.876;8.962;2023-12-22T00:35:38;7.10;99.90
10472;DHT22;5283;48.876;8.962;2023-12-22T00:38:05;7.20;99.90
10472;DHT22;5283;48.876;8.962;2023-12-22T00:40:31;7.20;99.90
10472;DHT22;5283;48.876;8.962;2023-12-22T00:42:58;7.30;99.90
10472;DHT22;5283;48.876;8.962;2023-12-22T00:45:25;7.30;99.90
10472;DHT22;5283;48.876;8.962;2023-12-22T00:47:51;7.40;99.90
10472;DHT22;5283;48.876;8.962;2023-12-22T00:50:19;7.40;99.90
10472;DHT22;5283;48.876;8.962;2023-12-22T00:52:45;7.40;99.90
10472;DHT22;5283;48.876;8.962;2023-12-22T00:55:12;7.40;99.90
10472;DHT22;5283;48.876;8.962;2023-12-22T00:57:39;7.30;99.90
10472;DHT22;5283;48.876;8.962;2023-12-22T01:00:06;7.30;99.90
10472;DHT22;5283;48.876;8.962;2023-12-22T01:02:37;7.30;99.90
10472;DHT22;5283;48.876;8.962;2023-12-22T01:05:04;7.30;99.90
10472;DHT22;5283;48.876;8.962;2023-12-22T01:07:31;7.40;99.90
10472;DHT22;5283;48.876;8.962;2023-12-22T01:09:57;7.40;99.90
10472;DHT22;5283;48.876;8.962;2023-12-22T01:12:28;7.50;99.90
10472;DHT22;5283;48.876;8.962;2023-12-22T01:14:56;7.50;99.90
10472;DHT22;5283;48.876;8.962;2023-12-22T01:17:23;7.50;99.90
10472;DHT22;5283;48.876;8.962;2023-12-22T01:19:50;7.50;99.90
10472;DHT22;5283;48.876;8.962;2023-12-22T01:22:17;7.40;99.90
10472;DHT22;5283;48.876;8.962;2023-12-22T01:24:44;7.40;99.90
10472;DHT22;5283;48.876;8.962;2023-12-22T01:27:12;7.30;99.90
10472;DHT22;5283;48.876;8.962;2023-12-22T01:29:39;7.30;99.90
10472;DHT22;5283;48.876;8.962;2023-12-22T01:32:06;7.30;99.90
10472;DHT22;5283;48.876;8.962;2023-12-22T01:34:32;7.30;99.90
10472;DHT22;5283;48.876;8.962;2023-12-22T01:36:59;7.40;99.90
10472;DHT22;5283;48.876;8.962;2023-12-22T01:39:26;7.40;99.90
10472;DHT22;5283;48.876;8.962;2023-12-22T01:41:53;7.40;99.90
10472;DHT22;5283;48.876;8.962;2023-12-22T01:44:20;7.30;99.90
10472;DHT22;5283;48.876;8.962;2023-12-22T01:46:46;7.40;99.90
10472;DHT22;5283;48.876;8.962;2023-12-22T01:49:14;7.40;99.90
10472;DHT22;5283;48.876;8.962;2023-12-22T01:51:41;7.50;99.90
10472;DHT22;5283;48.876;8.962;2023-12-22T01:54:09;7.40;99.90
10472;DHT22;5283;48.876;8.962;2023-12-22T01:56:36;7.30;99.90
10472;DHT22;5283;48.876;8.962;2023-12-22T01:59:03;7.20;99.90
10472;DHT22;5283;48.876;8.962;2023-12-22T02:01:31;7.10;99.90
10472;DHT22;5283;48.876;8.962;2023-12-22T02:03:59;7.00;99.90
10472;DHT22;5283;48.876;8.962;2023-12-22T02:06:25;6.90;99.90
10472;DHT22;5283;48.876;8.962;2023-12-22T02:08:54;6.90;99.90
10472;DHT22;5283;48.876;8.962;2023-12-22T02:11:20;7.00;99.90
10472;DHT22;5283;48.876;8.962;2023-12-22T02:13:47;6.90;99.90
10472;DHT22;5283;48.876;8.962;2023-12-22T02:16:26;6.80;99.90
10472;DHT22;5283;48.876;8.962;2023-12-22T02:18:55;6.80;99.90
10472;DHT22;5283;48.876;8.962;2023-12-22T02:21:22;7.00;99.90
10472;DHT22;5283;48.876;8.962;2023-12-22T02:23:49;7.00;99.90
10472;DHT22;5283;48.876;8.962;2023-12-22T02:26:27;7.00;99.90
10472;DHT22;5283;48.876;8.962;2023-12-22T02:28:57;6.90;99.90
10472;DHT22;5283;48.876;8.962;2023-12-22T02:31:38;6.90;99.90
10472;DHT22;5283;48.876;8.962;2023-12-22T02:34:16;7.10;99.90
10472;DHT22;5283;48.876;8.962;2023-12-22T02:36:44;7.00;99.90
10472;DHT22;5283;48.876;8.962;2023-12-22T02:39:14;7.10;99.90
10472;DHT22;5283;48.876;8.962;2023-12-22T02:41:41;7.10;99.90
10472;DHT22;5283;48.876;8.962;2023-12-22T02:44:08;7.10;99.90
10472;DHT22;5283;48.876;8.962;2023-12-22T02:46:35;7.20;99.90
10472;DHT22;5283;48.876;8.962;2023-12-22T02:49:02;7.10;99.90
10472;DHT22;5283;48.876;8.962;2023-12-22T02:51:28;7.20;99.90
10472;DHT22;5283;48.876;8.962;2023-12-22T02:53:55;7.20;99.90
10472;DHT22;5283;48.876;8.962;2023-12-22T02:56:22;7.20;99.90
10472;DHT22;5283;48.876;8.962;2023-12-22T02:58:48;7.20;99.90
10472;DHT22;5283;48.876;8.962;2023-12-22T03:01:15;7.20;99.90
10472;DHT22;5283;48.876;8.962;2023-12-22T03:03:42;7.20;99.90
10472;DHT22;5283;48.876;8.962;2023-12-22T03:06:08;7.20;99.90
10472;DHT22;5283;48.876;8.962;2023-12-22T03:08:35;7.30;99.90
10472;DHT22;5283;48.876;8.962;2023-12-22T03:11:02;7.30;99.90
10472;DHT22;5283;48.876;8.962;2023-12-22T03:13:29;7.30;99.90
10472;DHT22;5283;48.876;8.962;2023-12-22T03:15:55;7.30;99.90
10472;DHT22;5283;48.876;8.962;2023-12-22T03:18:22;7.50;99.90
10472;DHT22;5283;48.876;8.962;2023-12-22T03:20:49;7.40;99.90
10472;DHT22;5283;48.876;8.962;2023-12-22T03:23:16;7.40;99.90
10472;DHT22;5283;48.876;8.962;2023-12-22T03:25:42;7.50;99.90
10472;DHT22;5283;48.876;8.962;2023-12-22T03:28:09;7.40;99.90
10472;DHT22;5283;48.876;8.962;2023-12-22T03:30:35;7.40;99.90
10472;DHT22;5283;48.876;8.962;2023-12-22T03:33:04;7.50;99.90
10472;DHT22;5283;48.876;8.962;2023-12-22T03:35:31;7.60;99.90
10472;DHT22;5283;48.876;8.962;2023-12-22T03:37:57;7.50;99.90
10472;DHT22;5283;48.876;8.962;2023-12-22T03:40:24;7.50;99.90
10472;DHT22;5283;48.876;8.962;2023-12-22T03:42:51;7.50;99.90
10472;DHT22;5283;48.876;8.962;2023-12-22T03:45:17;7.60;99.90
10472;DHT22;5283;48.876;8.962;2023-12-22T03:47:44;7.50;99.90
10472;DHT22;5283;48.876;8.962;2023-12-22T03:50:11;7.40;99.90
10472;DHT22;5283;48.876;8.962;2023-12-22T03:52:38;7.20;99.90
10472;DHT22;5283;48.876;8.962;2023-12-22T03:55:04;6.90;99.90
10472;DHT22;5283;48.876;8.962;2023-12-22T03:57:31;6.70;99.90
10472;DHT22;5283;48.876;8.962;2023-12-22T03:59:58;6.80;99.90
10472;DHT22;5283;48.876;8.962;2023-12-22T04:02:24;6.70;99.90
10472;DHT22;5283;48.876;8.962;2023-12-22T04:04:51;6.70;99.90
10472;DHT22;5283;48.876;8.962;2023-12-22T04:07:18;6.70;99.90
10472;DHT22;5283;48.876;8.962;2023-12-22T04:09:44;6.70;99.90
10472;DHT22;5283;48.876;8.962;2023-12-22T04:12:11;6.70;99.90
10472;DHT22;5283;48.876;8.962;2023-12-22T04:14:38;6.60;99.90
10472;DHT22;5283;48.876;8.962;2023-12-22T04:17:04;6.70;99.90
10472;DHT22;5283;48.876;8.962;2023-12-22T04:19:31;6.60;99.90
10472;DHT22;5283;48.876;8.962;2023-12-22T04:21:58;6.60;99.90
10472;DHT22;5283;48.876;8.962;2023-12-22T04:24:24;6.80;99.90
10472;DHT22;5283;48.876;8.962;2023-12-22T04:26:51;6.80;99.90
10472;DHT22;5283;48.876;8.962;2023-12-22T04:29:18;6.80;99.90
10472;DHT22;5283;48.876;8.962;2023-12-22T04:31:44;6.80;99.90
10472;DHT22;5283;48.876;8.962;2023-12-22T04:34:14;6.80;99.90
10472;DHT22;5283;48.876;8.962;2023-12-22T04:36:42;6.90;99.90
10472;DHT22;5283;48.876;8.962;2023-12-22T04:39:09;6.80;99.90
10472;DHT22;5283;48.876;8.962;2023-12-22T04:41:35;6.80;99.90
10472;DHT22;5283;48.876;8.962;2023-12-22T04:44:02;6.90;99.90
10472;DHT22;5283;48.876;8.962;2023-12-22T04:46:30;6.90;99.90
10472;DHT22;5283;48.876;8.962;2023-12-22T04:48:56;6.90;99.90
10472;DHT22;5283;48.876;8.962;2023-12-22T04:51:23;6.90;99.90
10472;DHT22;5283;48.876;8.962;2023-12-22T04:53:50;6.80;99.90
10472;DHT22;5283;48.876;8.962;2023-12-22T04:56:17;6.80;99.90
10472;DHT22;5283;48.876;8.962;2023-12-22T04:58:43;6.70;99.90
10472;DHT22;5283;48.876;8.962;2023-12-22T05:01:10;6.90;99.90
10472;DHT22;5283;48.876;8.962;2023-12-22T05:03:38;6.90;99.90
10472;DHT22;5283;48.876;8.962;2023-12-22T05:06:04;6.90;99.90
10472;DHT22;5283;48.876;8.962;2023-12-22T05:08:31;6.90;99.90
10472;DHT22;5283;48.876;8.962;2023-12-22T05:10:58;6.90;99.90
10472;DHT22;5283;48.876;8.962;2023-12-22T05:13:24;6.90;99.90
10472;DHT22;5283;48.876;8.962;2023-12-22T05:15:51;7.00;99.90
10472;DHT22;5283;48.876;8.962;2023-12-22T05:18:18;6.90;99.90
10472;DHT22;5283;48.876;8.962;2023-12-22T05:20:44;7.10;99.90
10472;DHT22;5283;48.876;8.962;2023-12-22T05:23:11;7.10;99.90
10472;DHT22;5283;48.876;8.962;2023-12-22T05:25:38;7.10;99.90
10472;DHT22;5283;48.876;8.962;2023-12-22T05:28:05;7.10;99.90
10472;DHT22;5283;48.876;8.962;2023-12-22T05:30:31;6.90;99.90
10472;DHT22;5283;48.876;8.962;2023-12-22T05:32:58;6.90;99.90
10472;DHT22;5283;48.876;8.962;2023-12-22T05:35:25;7.00;99.90
10472;DHT22;5283;48.876;8.962;2023-12-22T05:37:51;7.00;99.90
10472;DHT22;5283;48.876;8.962;2023-12-22T05:40:18;6.90;99.90
10472;DHT22;5283;48.876;8.962;2023-12-22T05:42:45;7.10;99.90
10472;DHT22;5283;48.876;8.962;2023-12-22T05:45:13;7.20;99.90
10472;DHT22;5283;48.876;8.962;2023-12-22T05:47:40;7.20;99.90
10472;DHT22;5283;48.876;8.962;2023-12-22T05:50:07;7.30;99.90
10472;DHT22;5283;48.876;8.962;2023-12-22T05:52:34;7.40;99.90
10472;DHT22;5283;48.876;8.962;2023-12-22T05:55:01;7.40;99.90
10472;DHT22;5283;48.876;8.962;2023-12-22T05:57:28;7.40;99.90
10472;DHT22;5283;48.876;8.962;2023-12-22T05:59:55;7.40;99.90
10472;DHT22;5283;48.876;8.962;2023-12-22T06:02:21;7.40;99.90
10472;DHT22;5283;48.876;8.962;2023-12-22T06:04:48;7.50;99.90
10472;DHT22;5283;48.876;8.962;2023-12-22T06:07:15;7.50;99.90
10472;DHT22;5283;48.876;8.962;2023-12-22T06:09:41;7.60;99.90
10472;DHT22;5283;48.876;8.962;2023-12-22T06:12:08;7.50;99.90
10472;DHT22;5283;48.876;8.962;2023-12-22T06:14:36;7.40;99.90
10472;DHT22;5283;48.876;8.962;2023-12-22T06:17:03;7.50;99.90
10472;DHT22;5283;48.876;8.962;2023-12-22T06:19:30;7.60;99.90
10472;DHT22;5283;48.876;8.962;2023-12-22T06:21:57;7.60;99.90
10472;DHT22;5283;48.876;8.962;2023-12-22T06:24:23;7.60;99.90
10472;DHT22;5283;48.876;8.962;2023-12-22T06:26:50;7.50;99.90
10472;DHT22;5283;48.876;8.962;2023-12-22T06:29:17;7.50;99.90
10472;DHT22;5283;48.876;8.962;2023-12-22T06:31:43;7.50;99.90
10472;DHT22;5283;48.876;8.962;2023-12-22T06:34:10;7.40;99.90
10472;DHT22;5283;48.876;8.962;2023-12-22T06:36:37;7.40;99.90
10472;DHT22;5283;48.876;8.962;2023-12-22T06:39:03;7.50;99.90
10472;DHT22;5283;48.876;8.962;2023-12-22T06:41:31;7.50;99.90
10472;DHT22;5283;48.876;8.962;2023-12-22T06:43:59;7.60;99.90
10472;DHT22;5283;48.876;8.962;2023-12-22T06:46:27;7.60;99.90
10472;DHT22;5283;48.876;8.962;2023-12-22T06:48:55;7.60;99.90
10472;DHT22;5283;48.876;8.962;2023-12-22T06:51:23;7.60;99.90
10472;DHT22;5283;48.876;8.962;2023-12-22T06:53:50;7.60;99.90
10472;DHT22;5283;48.876;8.962;2023-12-22T06:56:22;7.60;99.90
10472;DHT22;5283;48.876;8.962;2023-12-22T06:58:50;7.60;99.90
10472;DHT22;5283;48.876;8.962;2023-12-22T07:01:33;7.50;99.90
10472;DHT22;5283;48.876;8.962;2023-12-22T07:04:00;7.40;99.90
10472;DHT22;5283;48.876;8.962;2023-12-22T07:06:30;7.40;99.90
10472;DHT22;5283;48.876;8.962;2023-12-22T07:14:06;7.40;99.90
10472;DHT22;5283;48.876;8.962;2023-12-22T07:16:36;7.40;99.90
10472;DHT22;5283;48.876;8.962;2023-12-22T07:19:04;7.30;99.90
10472;DHT22;5283;48.876;8.962;2023-12-22T07:21:31;7.40;99.90
10472;DHT22;5283;48.876;8.962;2023-12-22T07:23:58;7.40;99.90
10472;DHT22;5283;48.876;8.962;2023-12-22T07:26:25;7.40;99.90
10472;DHT22;5283;48.876;8.962;2023-12-22T07:28:53;7.40;99.90
10472;DHT22;5283;48.876;8.962;2023-12-22T07:31:20;7.50;99.90
10472;DHT22;5283;48.876;8.962;2023-12-22T07:33:47;7.40;99.90
10472;DHT22;5283;48.876;8.962;2023-12-22T07:36:14;7.40;99.90
10472;DHT22;5283;48.876;8.962;2023-12-22T07:38:42;7.50;99.90
10472;DHT22;5283;48.876;8.962;2023-12-22T07:41:08;7.40;99.90
10472;DHT22;5283;48.876;8.962;2023-12-22T07:43:35;7.40;99.90
10472;DHT22;5283;48.876;8.962;2023-12-22T07:46:02;7.40;99.90
10472;DHT22;5283;48.876;8.962;2023-12-22T07:48:29;7.40;99.90
10472;DHT22;5283;48.876;8.962;2023-12-22T07:50:56;7.40;99.90
10472;DHT22;5283;48.876;8.962;2023-12-22T07:53:22;7.40;99.90
10472;DHT22;5283;48.876;8.962;2023-12-22T07:55:49;7.40;99.90
10472;DHT22;5283;48.876;8.962;2023-12-22T07:58:16;7.30;99.90
10472;DHT22;5283;48.876;8.962;2023-12-22T08:00:44;7.20;99.90
10472;DHT22;5283;48.876;8.962;2023-12-22T08:03:12;7.20;99.90
10472;DHT22;5283;48.876;8.962;2023-12-22T08:05:39;7.10;99.90
10472;DHT22;5283;48.876;8.962;2023-12-22T08:08:06;7.10;99.90
10472;DHT22;5283;48.876;8.962;2023-12-22T08:10:33;7.00;99.90
10472;DHT22;5283;48.876;8.962;2023-12-22T08:12:59;7.00;99.90
10472;DHT22;5283;48.876;8.962;2023-12-22T08:15:26;6.90;99.90
10472;DHT22;5283;48.876;8.962;2023-12-22T08:17:54;6.90;99.90
10472;DHT22;5283;48.876;8.962;2023-12-22T08:20:21;6.90;99.90
10472;DHT22;5283;48.876;8.962;2023-12-22T08:22:49;6.90;99.90
10472;DHT22;5283;48.876;8.962;2023-12-22T08:25:17;6.90;99.90
10472;DHT22;5283;48.876;8.962;2023-12-22T08:27:46;6.90;99.90
10472;DHT22;5283;48.876;8.962;2023-12-22T08:30:13;7.00;99.90
10472;DHT22;5283;48.876;8.962;2023-12-22T08:32:43;7.00;99.90
10472;DHT22;5283;48.876;8.962;2023-12-22T08:35:10;6.90;99.90
10472;DHT22;5283;48.876;8.962;2023-12-22T08:37:37;7.00;99.90
10472;DHT22;5283;48.876;8.962;2023-12-22T08:40:04;7.10;99.90
10472;DHT22;5283;48.876;8.962;2023-12-22T08:42:32;7.20;99.90
10472;DHT22;5283;48.876;8.962;2023-12-22T08:44:59;7.30;99.90
10472;DHT22;5283;48.876;8.962;2023-12-22T08:47:25;7.40;99.90
10472;DHT22;5283;48.876;8.962;2023-12-22T08:49:52;7.40;99.90
10472;DHT22;5283;48.876;8.962;2023-12-22T08:52:19;7.40;99.90
10472;DHT22;5283;48.876;8.962;2023-12-22T08:54:45;7.50;99.90
10472;DHT22;5283;48.876;8.962;2023-12-22T08:57:12;7.60;99.90
10472;DHT22;5283;48.876;8.962;2023-12-22T08:59:39;7.50;99.90
10472;DHT22;5283;48.876;8.962;2023-12-22T09:02:06;7.40;99.90
10472;DHT22;5283;48.876;8.962;2023-12-22T09:04:32;7.60;99.90
10472;DHT22;5283;48.876;8.962;2023-12-22T09:06:59;7.60;99.90
10472;DHT22;5283;48.876;8.962;2023-12-22T09:09:27;7.60;99.90
10472;DHT22;5283;48.876;8.962;2023-12-22T09:11:54;7.70;99.90
10472;DHT22;5283;48.876;8.962;2023-12-22T09:14:20;7.60;99.90
10472;DHT22;5283;48.876;8.962;2023-12-22T09:16:47;7.60;99.90
10472;DHT22;5283;48.876;8.962;2023-12-22T09:19:14;7.60;99.90
10472;DHT22;5283;48.876;8.962;2023-12-22T09:21:41;7.70;99.90
10472;DHT22;5283;48.876;8.962;2023-12-22T09:24:10;7.70;99.90
10472;DHT22;5283;48.876;8.962;2023-12-22T09:26:38;7.70;99.90
10472;DHT22;5283;48.876;8.962;2023-12-22T09:29:06;7.70;99.90
10472;DHT22;5283;48.876;8.962;2023-12-22T09:31:32;7.70;99.90
10472;DHT22;5283;48.876;8.962;2023-12-22T09:33:59;7.80;99.90
10472;DHT22;5283;48.876;8.962;2023-12-22T09:36:26;7.80;99.90
10472;DHT22;5283;48.876;8.962;2023-12-22T09:38:52;7.90;99.90
10472;DHT22;5283;48.876;8.962;2023-12-22T09:41:19;7.90;99.90
10472;DHT22;5283;48.876;8.962;2023-12-22T09:43:49;7.80;99.90
10472;DHT22;5283;48.876;8.962;2023-12-22T09:46:20;7.90;99.90
10472;DHT22;5283;48.876;8.962;2023-12-22T09:48:49;8.00;99.90
10472;DHT22;5283;48.876;8.962;2023-12-22T09:51:19;8.00;99.90
10472;DHT22;5283;48.876;8.962;2023-12-22T09:53:46;8.00;99.90
10472;DHT22;5283;48.876;8.962;2023-12-22T09:56:14;8.00;99.90
10472;DHT22;5283;48.876;8.962;2023-12-22T09:58:41;8.00;99.90
10472;DHT22;5283;48.876;8.962;2023-12-22T10:01:08;8.00;99.90
10472;DHT22;5283;48.876;8.962;2023-12-22T10:03:37;8.00;99.90
10472;DHT22;5283;48.876;8.962;2023-12-22T10:06:04;8.10;99.90
10472;DHT22;5283;48.876;8.962;2023-12-22T10:08:31;8.10;99.90
10472;DHT22;5283;48.876;8.962;2023-12-22T10:10:59;8.00;99.90
10472;DHT22;5283;48.876;8.962;2023-12-22T10:13:26;8.00;99.90
10472;DHT22;5283;48.876;8.962;2023-12-22T10:15:54;8.10;99.90
10472;DHT22;5283;48.876;8.962;2023-12-22T10:18:22;8.10;99.90
10472;DHT22;5283;48.876;8.962;2023-12-22T10:20:49;8.20;99.90
10472;DHT22;5283;48.876;8.962;2023-12-22T10:23:15;8.20;99.90
10472;DHT22;5283;48.876;8.962;2023-12-22T10:25:42;8.20;99.90
10472;DHT22;5283;48.876;8.962;2023-12-22T10:28:12;8.20;99.90
10472;DHT22;5283;48.876;8.962;2023-12-22T10:30:40;8.20;99.90
10472;DHT22;5283;48.876;8.962;2023-12-22T10:33:07;8.20;99.90
10472;DHT22;5283;48.876;8.962;2023-12-22T10:35:34;8.20;99.90
10472;DHT22;5283;48.876;8.962;2023-12-22T10:38:01;8.20;99.90
10472;DHT22;5283;48.876;8.962;2023-12-22T10:40:28;8.20;99.90
10472;DHT22;5283;48.876;8.962;2023-12-22T10:42:56;8.20;99.90
10472;DHT22;5283;48.876;8.962;2023-12-22T10:45:22;8.20;99.90
10472;DHT22;5283;48.876;8.962;2023-12-22T10:47:50;8.20;99.90
10472;DHT22;5283;48.876;8.962;2023-12-22T10:50:19;8.20;99.90
10472;DHT22;5283;48.876;8.962;2023-12-22T10:52:50;8.20;99.90
10472;DHT22;5283;48.876;8.962;2023-12-22T10:55:20;8.20;99.90
10472;DHT22;5283;48.876;8.962;2023-12-22T10:57:47;8.20;99.90
10472;DHT22;5283;48.876;8.962;2023-12-22T11:00:15;8.10;99.90
10472;DHT22;5283;48.876;8.962;2023-12-22T11:02:48;8.10;99.90
10472;DHT22;5283;48.876;8.962;2023-12-22T11:05:18;8.10;99.90
10472;DHT22;5283;48.876;8.962;2023-12-22T11:07:53;8.00;99.90
10472;DHT22;5283;48.876;8.962;2023-12-22T11:10:21;8.00;99.90
10472;DHT22;5283;48.876;8.962;2023-12-22T11:12:48;8.00;99.90
10472;DHT22;5283;48.876;8.962;2023-12-22T11:15:17;8.00;99.90
10472;DHT22;5283;48.876;8.962;2023-12-22T11:17:44;7.90;99.90
10472;DHT22;5283;48.876;8.962;2023-12-22T11:20:13;7.90;99.90
10472;DHT22;5283;48.876;8.962;2023-12-22T11:22:42;7.90;99.90
10472;DHT22;5283;48.876;8.962;2023-12-22T11:25:09;7.90;99.90
10472;DHT22;5283;48.876;8.962;2023-12-22T11:27:37;7.80;99.90
10472;DHT22;5283;48.876;8.962;2023-12-22T11:30:07;7.80;99.90
10472;DHT22;5283;48.876;8.962;2023-12-22T11:32:36;7.70;99.90
10472;DHT22;5283;48.876;8.962;2023-12-22T11:35:03;7.90;99.90
10472;DHT22;5283;48.876;8.962;2023-12-22T11:37:31;7.80;99.90
10472;DHT22;5283;48.876;8.962;2023-12-22T11:39:59;7.80;99.90
10472;DHT22;5283;48.876;8.962;2023-12-22T11:42:30;7.80;99.90
10472;DHT22;5283;48.876;8.962;2023-12-22T11:44:58;7.80;99.90
10472;DHT22;5283;48.876;8.962;2023-12-22T11:47:25;7.70;99.90
10472;DHT22;5283;48.876;8.962;2023-12-22T11:49:52;7.70;99.90
10472;DHT22;5283;48.876;8.962;2023-12-22T11:52:25;7.60;99.90
10472;DHT22;5283;48.876;8.962;2023-12-22T11:54:53;7.70;99.90
10472;DHT22;5283;48.876;8.962;2023-12-22T12:00:37;7.60;99.90
10472;DHT22;5283;48.876;8.962;2023-12-22T12:03:06;7.60;99.90
10472;DHT22;5283;48.876;8.962;2023-12-22T12:05:32;7.60;99.90
10472;DHT22;5283;48.876;8.962;2023-12-22T12:08:06;7.60;99.90
10472;DHT22;5283;48.876;8.962;2023-12-22T12:13:07;7.60;99.90
10472;DHT22;5283;48.876;8.962;2023-12-22T12:15:34;7.60;99.90
10472;DHT22;5283;48.876;8.962;2023-12-22T12:18:03;7.70;99.90
10472;DHT22;5283;48.876;8.962;2023-12-22T12:20:30;7.70;99.90
10472;DHT22;5283;48.876;8.962;2023-12-22T12:22:56;7.80;99.90
10472;DHT22;5283;48.876;8.962;2023-12-22T12:25:27;7.80;99.90
10472;DHT22;5283;48.876;8.962;2023-12-22T12:28:05;7.90;99.90
10472;DHT22;5283;48.876;8.962;2023-12-22T12:30:33;7.90;99.90
10472;DHT22;5283;48.876;8.962;2023-12-22T12:33:06;8.00;99.90
10472;DHT22;5283;48.876;8.962;2023-12-22T12:35:33;8.00;99.90
10472;DHT22;5283;48.876;8.962;2023-12-22T12:38:02;8.10;99.90
10472;DHT22;5283;48.876;8.962;2023-12-22T12:40:30;8.10;99.90
10472;DHT22;5283;48.876;8.962;2023-12-22T12:42:59;8.10;99.90
10472;DHT22;5283;48.876;8.962;2023-12-22T12:45:26;8.20;99.90
10472;DHT22;5283;48.876;8.962;2023-12-22T12:47:57;8.30;99.90
10472;DHT22;5283;48.876;8.962;2023-12-22T12:50:27;8.30;99.90
10472;DHT22;5283;48.876;8.962;2023-12-22T12:53:01;8.40;99.90
10472;DHT22;5283;48.876;8.962;2023-12-22T12:55:28;8.50;99.90
10472;DHT22;5283;48.876;8.962;2023-12-22T12:57:56;8.60;99.90
10472;DHT22;5283;48.876;8.962;2023-12-22T13:00:27;8.50;99.90
10472;DHT22;5283;48.876;8.962;2023-12-22T13:03:00;8.60;99.90
10472;DHT22;5283;48.876;8.962;2023-12-22T13:05:29;8.70;99.90
10472;DHT22;5283;48.876;8.962;2023-12-22T13:10:38;8.80;99.90
10472;DHT22;5283;48.876;8.962;2023-12-22T13:13:06;8.80;99.90
10472;DHT22;5283;48.876;8.962;2023-12-22T13:15:33;8.80;99.90
10472;DHT22;5283;48.876;8.962;2023-12-22T13:18:00;8.90;99.90
10472;DHT22;5283;48.876;8.962;2023-12-22T13:20:27;8.90;99.90
10472;DHT22;5283;48.876;8.962;2023-12-22T13:22:54;8.90;99.90
10472;DHT22;5283;48.876;8.962;2023-12-22T13:25:21;9.00;99.90
10472;DHT22;5283;48.876;8.962;2023-12-22T13:27:52;9.00;99.90
10472;DHT22;5283;48.876;8.962;2023-12-22T13:30:38;9.00;99.90
10472;DHT22;5283;48.876;8.962;2023-12-22T13:33:07;9.00;99.90
10472;DHT22;5283;48.876;8.962;2023-12-22T13:35:35;9.10;99.90
10472;DHT22;5283;48.876;8.962;2023-12-22T13:38:07;9.00;99.90
10472;DHT22;5283;48.876;8.962;2023-12-22T13:40:34;9.00;99.90
10472;DHT22;5283;48.876;8.962;2023-12-22T13:43:01;9.10;99.90
10472;DHT22;5283;48.876;8.962;2023-12-22T13:45:30;9.10;99.90
10472;DHT22;5283;48.876;8.962;2023-12-22T13:47:57;9.10;99.90
10472;DHT22;5283;48.876;8.962;2023-12-22T13:50:24;9.10;99.90
10472;DHT22;5283;48.876;8.962;2023-12-22T13:52:51;9.10;99.90
10472;DHT22;5283;48.876;8.962;2023-12-22T13:55:19;9.10;99.90
10472;DHT22;5283;48.876;8.962;2023-12-22T13:57:46;9.10;99.90
10472;DHT22;5283;48.876;8.962;2023-12-22T14:02:46;9.10;99.90
10472;DHT22;5283;48.876;8.962;2023-12-22T14:05:16;9.10;99.90
10472;DHT22;5283;48.876;8.962;2023-12-22T14:07:43;9.10;99.90
10472;DHT22;5283;48.876;8.962;2023-12-22T14:10:11;9.20;99.90
10472;DHT22;5283;48.876;8.962;2023-12-22T14:12:38;9.10;99.90
10472;DHT22;5283;48.876;8.962;2023-12-22T14:15:09;9.20;99.90
10472;DHT22;5283;48.876;8.962;2023-12-22T14:17:36;9.20;99.90
10472;DHT22;5283;48.876;8.962;2023-12-22T14:20:03;9.20;99.90
10472;DHT22;5283;48.876;8.962;2023-12-22T14:22:31;9.30;99.90
10472;DHT22;5283;48.876;8.962;2023-12-22T14:24:58;9.30;99.90
10472;DHT22;5283;48.876;8.962;2023-12-22T14:27:24;9.30;99.90
10472;DHT22;5283;48.876;8.962;2023-12-22T14:29:51;9.20;99.90
10472;DHT22;5283;48.876;8.962;2023-12-22T14:32:18;9.20;99.90
10472;DHT22;5283;48.876;8.962;2023-12-22T14:34:47;9.20;99.90
10472;DHT22;5283;48.876;8.962;2023-12-22T14:37:14;9.20;99.90
10472;DHT22;5283;48.876;8.962;2023-12-22T14:39:43;9.20;99.90
10472;DHT22;5283;48.876;8.962;2023-12-22T14:42:10;9.20;99.90
10472;DHT22;5283;48.876;8.962;2023-12-22T14:44:37;9.30;99.90
10472;DHT22;5283;48.876;8.962;2023-12-22T14:47:05;9.20;99.90
10472;DHT22;5283;48.876;8.962;2023-12-22T14:49:33;9.30;99.90
10472;DHT22;5283;48.876;8.962;2023-12-22T14:51:59;9.20;99.90
10472;DHT22;5283;48.876;8.962;2023-12-22T14:54:26;9.30;99.90
10472;DHT22;5283;48.876;8.962;2023-12-22T14:56:53;9.20;99.90
10472;DHT22;5283;48.876;8.962;2023-12-22T14:59:20;9.20;99.90
10472;DHT22;5283;48.876;8.962;2023-12-22T15:01:46;9.20;99.90
10472;DHT22;5283;48.876;8.962;2023-12-22T15:04:14;9.30;99.90
10472;DHT22;5283;48.876;8.962;2023-12-22T15:06:41;9.20;99.90
10472;DHT22;5283;48.876;8.962;2023-12-22T15:09:12;9.20;99.90
10472;DHT22;5283;48.876;8.962;2023-12-22T15:11:45;9.20;99.90
10472;DHT22;5283;48.876;8.962;2023-12-22T15:14:12;9.20;99.90
10472;DHT22;5283;48.876;8.962;2023-12-22T15:16:42;9.20;99.90
10472;DHT22;5283;48.876;8.962;2023-12-22T15:19:12;9.10;99.90
10472;DHT22;5283;48.876;8.962;2023-12-22T15:21:38;9.10;99.90
10472;DHT22;5283;48.876;8.962;2023-12-22T15:24:06;9.10;99.90
10472;DHT22;5283;48.876;8.962;2023-12-22T15:26:33;9.20;99.90
10472;DHT22;5283;48.876;8.962;2023-12-22T15:29:00;9.30;99.90
10472;DHT22;5283;48.876;8.962;2023-12-22T15:31:27;9.20;99.90
10472;DHT22;5283;48.876;8.962;2023-12-22T15:33:58;9.10;99.90
10472;DHT22;5283;48.876;8.962;2023-12-22T15:36:24;9.10;99.90
10472;DHT22;5283;48.876;8.962;2023-12-22T15:38:51;9.10;99.90
10472;DHT22;5283;48.876;8.962;2023-12-22T15:41:18;9.10;99.90
10472;DHT22;5283;48.876;8.962;2023-12-22T15:43:46;9.10;99.90
10472;DHT22;5283;48.876;8.962;2023-12-22T15:46:12;9.20;99.90
10472;DHT22;5283;48.876;8.962;2023-12-22T15:48:39;9.20;99.90
10472;DHT22;5283;48.876;8.962;2023-12-22T15:51:10;9.20;99.90
10472;DHT22;5283;48.876;8.962;2023-12-22T15:53:38;9.30;99.90
10472;DHT22;5283;48.876;8.962;2023-12-22T15:56:06;9.30;99.90
10472;DHT22;5283;48.876;8.962;2023-12-22T15:58:33;9.40;99.90
10472;DHT22;5283;48.876;8.962;2023-12-22T16:01:00;9.30;99.90
10472;DHT22;5283;48.876;8.962;2023-12-22T16:03:27;9.30;99.90
10472;DHT22;5283;48.876;8.962;2023-12-22T16:05:54;9.30;99.90
10472;DHT22;5283;48.876;8.962;2023-12-22T16:08:21;9.30;99.90
10472;DHT22;5283;48.876;8.962;2023-12-22T16:10:47;9.30;99.90
10472;DHT22;5283;48.876;8.962;2023-12-22T16:13:15;9.30;99.90
10472;DHT22;5283;48.876;8.962;2023-12-22T16:15:41;9.30;99.90
10472;DHT22;5283;48.876;8.962;2023-12-22T16:18:09;9.30;99.90
10472;DHT22;5283;48.876;8.962;2023-12-22T16:20:36;9.30;99.90